createdAt,value
2022-10-07T00:01:15.467Z,12.12
2022-10-07T00:03:43.683Z,11.34
2022-10-07T00:06:14.579Z,11.86
2022-10-07T00:08:44.184Z,12.00
2022-10-07T00:11:14.841Z,12.13
2022-10-07T00:13:44.753Z,12.62
2022-10-07T00:16:17.348Z,12.90
2022-10-07T00:18:46.223Z,12.64
2022-10-07T00:21:16.491Z,12.72
2022-10-07T00:23:45.896Z,12.77
2022-10-07T00:26:16.814Z,12.79
2022-10-07T00:28:45.647Z,11.30
2022-10-07T00:31:17.552Z,11.66
2022-10-07T00:33:46.506Z,11.94
2022-10-07T00:36:17.801Z,11.48
2022-10-07T00:38:46.163Z,11.63
2022-10-07T00:41:19.119Z,11.42
2022-10-07T00:43:47.772Z,10.99
2022-10-07T00:46:27.155Z,11.41
2022-10-07T00:48:56.776Z,11.92
2022-10-07T00:51:25.561Z,11.40
2022-10-07T00:53:56.469Z,11.44
2022-10-07T00:56:26.609Z,11.65
2022-10-07T00:58:55.096Z,11.41
2022-10-07T01:01:25.243Z,11.67
2022-10-07T01:03:54.833Z,11.41
2022-10-07T01:06:23.809Z,11.37
2022-10-07T01:08:54.423Z,11.66
2022-10-07T01:11:35.173Z,11.13
2022-10-07T01:14:10.504Z,11.67
2022-10-07T01:16:49.187Z,11.78
2022-10-07T01:19:40.291Z,11.10
2022-10-07T01:22:23.144Z,11.72
2022-10-07T01:25:01.181Z,11.35
2022-10-07T01:27:31.537Z,11.53
2022-10-07T01:30:05.573Z,11.33
2022-10-07T01:32:38.843Z,11.40
2022-10-07T01:35:11.883Z,11.69
2022-10-07T01:37:46.032Z,11.05
2022-10-07T01:40:19.341Z,10.52
2022-10-07T01:42:49.870Z,10.39
2022-10-07T01:45:22.358Z,10.04
2022-10-07T01:47:51.467Z,10.29
2022-10-07T01:50:24.375Z,10.78
2022-10-07T01:53:06.653Z,10.99
2022-10-07T01:55:50.801Z,10.64
2022-10-07T01:58:40.017Z,11.02
2022-10-07T02:01:18.697Z,10.31
2022-10-07T02:04:08.049Z,11.05
2022-10-07T02:06:45.222Z,11.07
2022-10-07T02:09:24.981Z,11.16
2022-10-07T02:12:00.769Z,10.91
2022-10-07T02:14:39.672Z,11.17
2022-10-07T02:17:14.391Z,11.26
2022-10-07T02:19:47.755Z,11.02
2022-10-07T02:22:18.570Z,10.83
2022-10-07T02:24:49.484Z,11.00
2022-10-07T02:27:21.441Z,10.95
2022-10-07T02:29:54.657Z,11.00
2022-10-07T02:32:25.539Z,10.63
2022-10-07T02:34:58.967Z,11.02
2022-10-07T02:37:32.204Z,11.08
2022-10-07T02:40:01.087Z,11.10
2022-10-07T02:42:36.725Z,11.10
2022-10-07T02:45:16.014Z,10.96
2022-10-07T02:47:50.579Z,10.82
2022-10-07T02:50:24.841Z,9.60
2022-10-07T02:52:56.871Z,10.53
2022-10-07T02:55:28.892Z,10.57
2022-10-07T02:58:00.157Z,10.81
2022-10-07T03:00:32.696Z,10.88
2022-10-07T03:03:02.814Z,11.04
2022-10-07T03:05:30.992Z,11.11
2022-10-07T03:08:02.018Z,10.99
2022-10-07T03:10:30.241Z,10.42
2022-10-07T03:12:58.588Z,10.30
2022-10-07T03:15:27.680Z,10.59
2022-10-07T03:17:57.277Z,10.65
2022-10-07T03:20:25.489Z,10.77
2022-10-07T03:22:53.725Z,10.20
2022-10-07T03:25:21.976Z,10.54
2022-10-07T03:27:50.189Z,10.09
2022-10-07T03:30:24.265Z,10.71
2022-10-07T03:32:53.494Z,10.51
2022-10-07T03:35:23.164Z,10.49
2022-10-07T03:37:51.432Z,10.59
2022-10-07T03:40:20.507Z,10.40
2022-10-07T03:42:50.245Z,10.54
2022-10-07T03:45:20.924Z,9.96
2022-10-07T03:47:49.127Z,9.73
2022-10-07T03:50:17.588Z,9.60
2022-10-07T03:52:47.221Z,9.74
2022-10-07T03:55:16.453Z,10.12
2022-10-07T03:57:58.568Z,10.34
2022-10-07T04:00:28.385Z,10.27
2022-10-07T04:02:56.689Z,9.75
2022-10-07T04:05:24.992Z,10.11
2022-10-07T04:07:54.838Z,9.87
2022-10-07T04:10:23.109Z,10.03
2022-10-07T04:12:52.439Z,9.57
2022-10-07T04:15:21.491Z,10.03
2022-10-07T04:17:50.776Z,10.27
2022-10-07T04:20:19.237Z,10.05
2022-10-07T04:22:47.432Z,10.12
2022-10-07T04:25:35.620Z,10.23
2022-10-07T04:28:06.452Z,10.11
2022-10-07T04:30:40.557Z,10.15
2022-10-07T04:33:08.962Z,10.30
2022-10-07T04:35:39.581Z,10.71
2022-10-07T04:38:10.407Z,10.90
2022-10-07T04:40:44.772Z,9.75
2022-10-07T04:43:24.557Z,10.53
2022-10-07T04:45:54.897Z,10.89
2022-10-07T04:48:24.760Z,10.71
2022-10-07T04:50:53.129Z,9.92
2022-10-07T04:53:22.066Z,10.43
2022-10-07T04:55:52.710Z,10.46
2022-10-07T04:58:21.487Z,10.45
2022-10-07T05:00:51.724Z,10.56
2022-10-07T05:03:21.774Z,10.74
2022-10-07T05:05:51.695Z,10.71
2022-10-07T05:08:22.775Z,10.11
2022-10-07T05:10:55.791Z,10.56
2022-10-07T05:13:24.597Z,10.56
2022-10-07T05:15:54.494Z,10.04
2022-10-07T05:18:23.969Z,10.42
2022-10-07T05:20:52.686Z,10.87
2022-10-07T05:23:27.260Z,10.95
2022-10-07T05:26:04.628Z,11.01
2022-10-07T05:28:33.192Z,10.83
2022-10-07T05:31:07.023Z,11.25
2022-10-07T05:33:35.949Z,10.61
2022-10-07T05:36:04.959Z,11.43
2022-10-07T05:38:33.960Z,11.66
2022-10-07T05:41:05.969Z,12.08
2022-10-07T05:43:36.777Z,12.21
2022-10-07T05:46:06.502Z,12.33
2022-10-07T05:48:39.237Z,11.98
2022-10-07T05:51:08.651Z,10.83
2022-10-07T05:53:41.216Z,10.36
2022-10-07T05:56:12.778Z,10.47
2022-10-07T05:58:41.144Z,10.76
2022-10-07T06:01:14.841Z,11.53
2022-10-07T06:03:43.597Z,12.85
2022-10-07T06:06:11.937Z,13.78
2022-10-07T06:08:40.214Z,14.15
2022-10-07T06:11:29.034Z,14.66
2022-10-07T06:13:57.300Z,15.02
2022-10-07T06:16:26.378Z,15.49
2022-10-07T06:18:55.743Z,16.05
2022-10-07T06:21:28.281Z,16.10
2022-10-07T06:23:58.108Z,15.99
2022-10-07T06:26:28.030Z,16.68
2022-10-07T06:28:56.663Z,17.08
2022-10-07T06:31:25.955Z,17.74
2022-10-07T06:33:54.694Z,17.89
2022-10-07T06:36:23.063Z,18.16
2022-10-07T06:38:52.818Z,18.25
2022-10-07T06:41:21.801Z,18.66
2022-10-07T06:43:55.887Z,18.02
2022-10-07T06:46:24.266Z,18.02
2022-10-07T06:48:52.585Z,18.67
2022-10-07T06:51:22.268Z,19.54
2022-10-07T06:53:53.661Z,19.80
2022-10-07T06:56:22.171Z,20.43
2022-10-07T06:58:51.944Z,20.83
2022-10-07T07:01:20.345Z,20.84
2022-10-07T07:03:49.009Z,21.01
2022-10-07T07:06:17.329Z,20.89
2022-10-07T07:08:46.134Z,20.92
2022-10-07T07:11:32.570Z,21.53
2022-10-07T07:14:03.350Z,21.97
2022-10-07T07:16:32.076Z,21.30
2022-10-07T07:19:03.021Z,21.50
2022-10-07T07:21:31.782Z,22.07
2022-10-07T07:24:01.436Z,22.03
2022-10-07T07:26:30.138Z,22.09
2022-10-07T07:29:00.380Z,21.65
2022-10-07T07:31:31.948Z,22.38
2022-10-07T07:34:02.241Z,22.72
2022-10-07T07:36:33.375Z,22.48
2022-10-07T07:39:04.438Z,22.27
2022-10-07T07:41:35.393Z,22.69
2022-10-07T07:44:06.381Z,24.11
2022-10-07T07:46:39.001Z,23.23
2022-10-07T07:49:07.324Z,22.28
2022-10-07T07:51:35.624Z,22.11
2022-10-07T07:54:03.908Z,24.56
2022-10-07T07:56:32.819Z,24.92
2022-10-07T07:59:02.093Z,24.32
2022-10-07T08:01:32.159Z,24.10
2022-10-07T08:04:03.226Z,24.43
2022-10-07T08:06:31.622Z,24.72
2022-10-07T08:08:59.983Z,23.91
2022-10-07T08:11:28.992Z,24.94
2022-10-07T08:13:57.891Z,24.70
2022-10-07T08:16:29.492Z,25.37
2022-10-07T08:18:58.850Z,25.44
2022-10-07T08:21:33.054Z,26.16
2022-10-07T08:24:04.049Z,26.34
2022-10-07T08:26:34.880Z,25.82
2022-10-07T08:29:03.392Z,26.06
2022-10-07T08:31:32.641Z,27.33
2022-10-07T08:34:03.135Z,28.83
2022-10-07T08:36:34.544Z,26.53
2022-10-07T08:39:03.058Z,26.20
2022-10-07T08:41:54.167Z,26.80
2022-10-07T08:44:27.850Z,27.64
2022-10-07T08:47:02.216Z,27.77
2022-10-07T08:49:40.783Z,27.00
2022-10-07T08:52:25.341Z,26.95
2022-10-07T08:54:54.495Z,26.14
2022-10-07T08:57:37.560Z,27.47
2022-10-07T09:00:07.601Z,28.00
2022-10-07T09:02:45.146Z,27.67
2022-10-07T09:05:22.584Z,28.65
2022-10-07T09:07:55.142Z,28.50
2022-10-07T09:10:32.483Z,28.61
2022-10-07T09:13:04.867Z,28.09
2022-10-07T09:15:40.407Z,28.53
2022-10-07T09:18:18.213Z,29.19
2022-10-07T09:20:52.141Z,28.72
2022-10-07T09:23:24.276Z,29.86
2022-10-07T09:25:53.181Z,29.20
2022-10-07T09:28:27.065Z,28.47
2022-10-07T09:30:55.724Z,28.51
2022-10-07T09:33:25.872Z,30.91
2022-10-07T09:35:57.679Z,30.86
2022-10-07T09:38:37.159Z,29.98
2022-10-07T09:41:16.826Z,29.80
2022-10-07T09:43:56.648Z,29.84
2022-10-07T09:46:40.693Z,29.92
2022-10-07T09:49:37.170Z,31.20
2022-10-07T09:52:07.578Z,30.83
2022-10-07T09:54:38.188Z,29.87
2022-10-07T09:57:07.602Z,30.24
2022-10-07T09:59:37.356Z,31.99
2022-10-07T10:02:22.333Z,31.19
2022-10-07T10:04:52.716Z,31.65
2022-10-07T10:07:26.831Z,31.87
2022-10-07T10:09:58.584Z,32.52
2022-10-07T10:12:27.397Z,31.97
2022-10-07T10:14:57.053Z,33.47
2022-10-07T10:17:30.195Z,32.82
2022-10-07T10:20:32.454Z,31.48
2022-10-07T10:23:03.209Z,31.47
2022-10-07T10:26:09.472Z,31.96
2022-10-07T10:28:45.643Z,31.60
2022-10-07T10:31:25.389Z,32.55
2022-10-07T10:34:02.467Z,33.07
2022-10-07T10:36:34.284Z,32.67
2022-10-07T10:39:07.622Z,31.66
2022-10-07T10:41:48.677Z,32.80
2022-10-07T10:44:49.848Z,33.00
2022-10-07T10:47:25.667Z,32.45
2022-10-07T10:50:06.251Z,34.08
2022-10-07T10:52:49.700Z,33.73
2022-10-07T10:55:39.737Z,34.21
2022-10-07T10:58:25.035Z,33.60
2022-10-07T11:01:06.934Z,32.71
2022-10-07T11:03:50.124Z,33.46
2022-10-07T11:06:20.237Z,33.39
2022-10-07T11:08:52.202Z,32.06
2022-10-07T11:11:22.792Z,30.07
2022-10-07T11:13:59.312Z,31.03
2022-10-07T11:16:31.878Z,32.63
2022-10-07T11:19:06.875Z,32.09
2022-10-07T11:21:39.273Z,32.74
2022-10-07T11:24:15.315Z,32.44
2022-10-07T11:26:46.552Z,31.17
2022-10-07T11:29:30.118Z,30.94
2022-10-07T11:32:05.869Z,31.02
2022-10-07T11:34:45.156Z,30.48
2022-10-07T11:37:19.889Z,31.45
2022-10-07T11:39:48.905Z,31.20
2022-10-07T11:42:24.532Z,32.01
2022-10-07T11:45:01.963Z,31.91
2022-10-07T11:47:36.065Z,30.70
2022-10-07T11:50:10.891Z,32.11
2022-10-07T11:52:43.815Z,31.48
2022-10-07T11:55:22.292Z,32.10
2022-10-07T11:57:55.853Z,31.67
2022-10-07T12:00:29.836Z,32.99
2022-10-07T12:02:58.706Z,31.56
2022-10-07T12:05:58.129Z,32.50
2022-10-07T12:08:32.782Z,33.18
2022-10-07T12:11:45.632Z,33.01
2022-10-07T12:14:44.635Z,31.52
2022-10-07T12:17:30.451Z,32.08
2022-10-07T12:20:53.074Z,31.78
2022-10-07T12:23:44.277Z,32.90
2022-10-07T12:26:51.656Z,31.83
2022-10-07T12:29:48.500Z,32.60
2022-10-07T12:32:57.581Z,31.99
2022-10-07T12:35:51.484Z,32.26
2022-10-07T12:38:27.647Z,31.94
2022-10-07T12:41:06.644Z,32.49
2022-10-07T12:43:48.932Z,31.31
2022-10-07T12:46:21.815Z,32.98
2022-10-07T12:48:59.948Z,31.92
2022-10-07T12:51:31.677Z,32.27
2022-10-07T12:54:01.674Z,31.84
2022-10-07T12:56:31.733Z,31.24
2022-10-07T12:59:49.700Z,31.86
2022-10-07T13:02:49.328Z,31.41
2022-10-07T13:06:02.621Z,31.55
2022-10-07T13:09:10.029Z,32.33
2022-10-07T13:12:07.941Z,31.91
2022-10-07T13:14:44.925Z,31.96
2022-10-07T13:17:29.730Z,31.00
2022-10-07T13:20:08.210Z,31.60
2022-10-07T13:22:37.010Z,31.41
2022-10-07T13:25:09.053Z,31.28
2022-10-07T13:27:38.767Z,32.07
2022-10-07T13:30:32.670Z,32.29
2022-10-07T13:33:15.761Z,31.23
2022-10-07T13:35:44.266Z,30.97
2022-10-07T13:38:25.998Z,31.18
2022-10-07T13:41:02.323Z,31.38
2022-10-07T13:43:33.253Z,31.46
2022-10-07T13:46:05.254Z,31.24
2022-10-07T13:48:43.037Z,30.86
2022-10-07T13:51:21.910Z,31.18
2022-10-07T13:53:55.252Z,31.10
2022-10-07T13:56:28.286Z,31.90
2022-10-07T13:58:58.324Z,31.58
2022-10-07T14:01:29.676Z,31.77
2022-10-07T14:04:26.493Z,31.95
2022-10-07T14:06:58.720Z,31.35
2022-10-07T14:09:43.897Z,31.23
2022-10-07T14:12:17.097Z,30.54
2022-10-07T14:14:47.786Z,30.79
2022-10-07T14:17:30.543Z,30.94
2022-10-07T14:20:05.873Z,29.96
2022-10-07T14:22:38.931Z,30.53
2022-10-07T14:25:18.182Z,30.47
2022-10-07T14:27:56.685Z,30.08
2022-10-07T14:31:01.343Z,30.55
2022-10-07T14:33:56.357Z,29.51
2022-10-07T14:36:24.758Z,29.34
2022-10-07T14:38:55.878Z,28.30
2022-10-07T14:41:24.707Z,28.25
2022-10-07T14:43:55.788Z,27.53
2022-10-07T14:46:26.397Z,27.38
2022-10-07T14:48:55.464Z,27.25
2022-10-07T14:51:27.108Z,27.65
2022-10-07T14:53:58.173Z,27.17
2022-10-07T14:56:29.324Z,25.79
2022-10-07T14:58:59.270Z,25.24
2022-10-07T15:01:29.896Z,25.25
2022-10-07T15:04:01.965Z,21.00
2022-10-07T15:06:30.866Z,24.94
2022-10-07T15:09:00.426Z,23.79
2022-10-07T15:11:29.200Z,25.00
2022-10-07T15:13:58.900Z,24.25
2022-10-07T15:16:28.800Z,24.67
2022-10-07T15:18:57.298Z,24.94
2022-10-07T15:21:29.013Z,23.98
2022-10-07T15:23:57.877Z,23.78
2022-10-07T15:26:26.546Z,23.22
2022-10-07T15:28:59.541Z,23.40
2022-10-07T15:31:30.726Z,23.25
2022-10-07T15:33:59.066Z,23.18
2022-10-07T15:36:29.460Z,23.50
2022-10-07T15:39:02.285Z,23.02
2022-10-07T15:41:36.179Z,22.99
2022-10-07T15:44:07.417Z,22.97
2022-10-07T15:46:37.024Z,22.86
2022-10-07T15:49:05.695Z,22.73
2022-10-07T15:51:35.661Z,23.06
2022-10-07T15:54:04.419Z,23.03
2022-10-07T15:56:33.280Z,22.75
2022-10-07T15:59:02.323Z,23.03
2022-10-07T16:01:32.204Z,23.18
2022-10-07T16:04:03.656Z,23.04
2022-10-07T16:06:33.940Z,23.33
2022-10-07T16:09:03.416Z,23.12
2022-10-07T16:11:33.697Z,22.77
2022-10-07T16:14:03.179Z,22.95
2022-10-07T16:16:32.646Z,22.49
2022-10-07T16:19:02.981Z,21.75
2022-10-07T16:21:32.578Z,21.22
2022-10-07T16:24:03.840Z,20.51
2022-10-07T16:26:33.991Z,20.92
2022-10-07T16:29:21.663Z,20.92
2022-10-07T16:31:57.139Z,21.66
2022-10-07T16:34:29.337Z,20.47
2022-10-07T16:37:00.861Z,19.49
2022-10-07T16:39:29.736Z,19.82
2022-10-07T16:41:59.997Z,19.57
2022-10-07T16:44:29.733Z,19.50
2022-10-07T16:46:59.256Z,19.29
2022-10-07T16:49:30.492Z,19.35
2022-10-07T16:51:59.893Z,19.05
2022-10-07T16:54:30.434Z,19.21
2022-10-07T16:56:58.854Z,18.12
2022-10-07T16:59:27.720Z,18.66
2022-10-07T17:02:02.591Z,17.43
2022-10-07T17:04:35.560Z,18.23
2022-10-07T17:07:06.840Z,17.83
2022-10-07T17:09:35.134Z,18.66
2022-10-07T17:12:04.288Z,18.88
2022-10-07T17:14:33.729Z,19.06
2022-10-07T17:17:02.011Z,18.30
2022-10-07T17:19:30.394Z,18.32
2022-10-07T17:22:01.228Z,18.23
2022-10-07T17:24:30.193Z,18.03
2022-10-07T17:26:58.495Z,17.67
2022-10-07T17:29:27.165Z,18.06
2022-10-07T17:31:55.762Z,18.02
2022-10-07T17:34:24.299Z,18.37
2022-10-07T17:36:52.917Z,18.26
2022-10-07T17:39:22.860Z,18.47
2022-10-07T17:41:51.103Z,18.75
2022-10-07T17:44:21.541Z,18.48
2022-10-07T17:46:50.415Z,18.64
2022-10-07T17:49:18.683Z,19.22
2022-10-07T17:51:46.890Z,18.99
2022-10-07T17:54:15.440Z,18.72
2022-10-07T17:56:45.784Z,18.55
2022-10-07T17:59:14.475Z,18.76
2022-10-07T18:01:42.879Z,18.34
2022-10-07T18:04:13.551Z,18.27
2022-10-07T18:06:43.343Z,18.08
2022-10-07T18:09:15.156Z,17.40
2022-10-07T18:12:02.312Z,17.92
2022-10-07T18:14:53.290Z,18.00
2022-10-07T18:17:22.631Z,17.76
2022-10-07T18:19:50.925Z,18.22
2022-10-07T18:22:19.393Z,18.30
2022-10-07T18:24:47.709Z,18.46
2022-10-07T18:27:17.609Z,18.52
2022-10-07T18:29:45.978Z,18.27
2022-10-07T18:32:14.188Z,18.34
2022-10-07T18:34:42.411Z,18.07
2022-10-07T18:37:10.729Z,17.94
2022-10-07T18:39:39.086Z,17.58
2022-10-07T18:42:08.336Z,17.82
2022-10-07T18:44:38.052Z,18.14
2022-10-07T18:47:06.546Z,17.64
2022-10-07T18:49:35.030Z,17.73
2022-10-07T18:52:05.265Z,18.11
2022-10-07T18:54:33.485Z,18.16
2022-10-07T18:57:01.806Z,17.94
2022-10-07T18:59:30.120Z,17.33
2022-10-07T19:01:59.800Z,16.86
2022-10-07T19:04:30.116Z,16.92
2022-10-07T19:06:58.360Z,17.34
2022-10-07T19:09:26.674Z,17.78
2022-10-07T19:11:54.975Z,17.88
2022-10-07T19:14:26.008Z,17.68
2022-10-07T19:16:54.400Z,17.72
2022-10-07T19:19:25.749Z,17.39
2022-10-07T19:21:55.352Z,17.48
2022-10-07T19:24:45.710Z,17.73
2022-10-07T19:27:14.355Z,17.56
2022-10-07T19:29:42.568Z,17.71
2022-10-07T19:32:10.953Z,17.62
2022-10-07T19:34:40.660Z,17.58
2022-10-07T19:37:08.922Z,17.49
2022-10-07T19:39:37.393Z,17.43
2022-10-07T19:42:05.866Z,17.27
2022-10-07T19:44:34.428Z,17.17
2022-10-07T19:47:04.328Z,17.10
2022-10-07T19:49:32.605Z,17.01
2022-10-07T19:52:02.243Z,16.08
2022-10-07T19:54:35.856Z,16.27
2022-10-07T19:57:04.330Z,16.37
2022-10-07T19:59:32.525Z,15.79
2022-10-07T20:02:01.362Z,16.04
2022-10-07T20:04:30.187Z,15.78
2022-10-07T20:06:58.854Z,15.70
2022-10-07T20:09:28.570Z,15.61
2022-10-07T20:11:56.932Z,16.10
2022-10-07T20:14:25.177Z,15.84
2022-10-07T20:16:56.327Z,15.65
2022-10-07T20:19:25.328Z,15.68
2022-10-07T20:21:53.665Z,15.73
2022-10-07T20:24:21.906Z,15.72
2022-10-07T20:26:52.808Z,15.69
2022-10-07T20:29:25.575Z,16.05
2022-10-07T20:31:54.055Z,15.97
2022-10-07T20:34:22.813Z,16.24
2022-10-07T20:36:51.494Z,16.44
2022-10-07T20:39:38.726Z,16.61
2022-10-07T20:42:24.677Z,16.48
2022-10-07T20:44:53.553Z,15.93
2022-10-07T20:47:23.017Z,16.45
2022-10-07T20:49:51.780Z,16.54
2022-10-07T20:52:22.072Z,15.81
2022-10-07T20:54:51.241Z,15.79
2022-10-07T20:57:22.336Z,16.31
2022-10-07T20:59:51.356Z,16.18
2022-10-07T21:02:21.357Z,15.96
2022-10-07T21:04:49.818Z,15.83
2022-10-07T21:07:19.203Z,16.14
2022-10-07T21:09:47.876Z,15.92
2022-10-07T21:12:18.724Z,15.60
2022-10-07T21:14:48.696Z,15.90
2022-10-07T21:17:17.168Z,14.71
2022-10-07T21:19:45.898Z,15.00
2022-10-07T21:22:14.117Z,15.39
2022-10-07T21:24:42.320Z,15.49
2022-10-07T21:27:10.900Z,14.80
2022-10-07T21:29:41.025Z,13.93
2022-10-07T21:32:12.214Z,14.82
2022-10-07T21:34:40.492Z,14.56
2022-10-07T21:37:08.672Z,15.04
2022-10-07T21:39:38.350Z,14.97
2022-10-07T21:42:06.847Z,15.07
2022-10-07T21:44:35.747Z,14.77
2022-10-07T21:47:05.236Z,14.86
2022-10-07T21:49:34.961Z,14.56
2022-10-07T21:52:03.170Z,14.61
2022-10-07T21:54:31.557Z,14.86
2022-10-07T21:56:59.826Z,15.09
2022-10-07T21:59:28.060Z,15.03
2022-10-07T22:01:56.365Z,15.11
2022-10-07T22:04:25.035Z,14.80
2022-10-07T22:07:12.100Z,15.06
2022-10-07T22:09:40.365Z,14.84
2022-10-07T22:12:08.972Z,14.70
2022-10-07T22:14:37.243Z,14.43
2022-10-07T22:17:05.520Z,14.43
2022-10-07T22:19:35.722Z,14.33
2022-10-07T22:22:06.674Z,14.55
2022-10-07T22:24:35.516Z,14.15
2022-10-07T22:27:04.555Z,14.18
2022-10-07T22:29:32.900Z,14.05
2022-10-07T22:32:01.169Z,14.38
2022-10-07T22:34:47.090Z,14.67
2022-10-07T22:37:16.759Z,14.56
2022-10-07T22:39:44.940Z,14.43
2022-10-07T22:42:13.172Z,14.38
2022-10-07T22:44:41.382Z,14.70
2022-10-07T22:47:09.640Z,14.35
2022-10-07T22:49:37.922Z,14.46
2022-10-07T22:52:06.153Z,14.07
2022-10-07T22:54:35.809Z,13.55
2022-10-07T22:57:07.112Z,13.85
2022-10-07T22:59:35.461Z,14.38
2022-10-07T23:02:03.653Z,14.13
2022-10-07T23:04:31.877Z,14.42
2022-10-07T23:07:00.126Z,13.89
2022-10-07T23:09:28.375Z,14.02
2022-10-07T23:11:58.109Z,13.89
2022-10-07T23:14:26.393Z,13.70
2022-10-07T23:16:54.650Z,13.94
2022-10-07T23:19:22.902Z,13.64
2022-10-07T23:21:51.149Z,13.31
2022-10-07T23:24:19.396Z,12.79
2022-10-07T23:26:47.678Z,13.68
2022-10-07T23:29:17.729Z,13.83
2022-10-07T23:31:46.017Z,14.30
2022-10-07T23:34:15.135Z,14.08
2022-10-07T23:36:43.526Z,13.49
2022-10-07T23:39:12.021Z,13.16
2022-10-07T23:41:40.376Z,13.47
2022-10-07T23:44:08.584Z,13.14
2022-10-07T23:46:39.802Z,13.63
2022-10-07T23:49:08.118Z,12.98
2022-10-07T23:51:36.398Z,13.14
2022-10-07T23:54:05.585Z,12.99
2022-10-07T23:56:34.177Z,12.47
2022-10-07T23:59:02.932Z,13.24
